メインページ
METAR-TAF:

METAR-TAF

空港 :

アルハンゲリスク, ロシア

緯度: 64-30N, 経度: 040-44E, 海抜: 13m

現時点の気象観測

当レポートは36分前の14:30(UTC)に作成
無風
気温 -19°C
湿度 84%
気圧 1014 hPa
視程: 3100m
高度800ftの千切れ雲あり
高度1300ftの曇り
小雪

METAR: ULAA 161430Z 00000MPS 3100 -SN BKN008 OVC013 M19/M21 Q1014 R08/490540 NOSIG RMK QFE760/1013

時間: 18:06 (15:06 UTC)

予報

当レポートは1時間6分前の14:00(UTC)に作成
予報は16日の 15時(UTC)から 17日の 15時(UTC)まで有効
西の風 6kt
視程: 4000m
高度700ftの千切れ雲あり
小雪, 靄
16日の 15時(UTC)から 17日の 10時(UTC)まで一時的に
西/南西の風 6kt
視程: 0500m
高度200ftの千切れ雲あり
高度1000ftの千切れ雲あり, 積乱雲.
弱いにわか雪, 着氷性の霧
17日の 1000時(UTC)から
西の風 6kt
視程: 6000m
高度1600ftの千切れ雲あり
小雪
17日の 10時(UTC)から 17日の 15時(UTC)まで一時的に
西/南西の風 6kt、最大16ktの突風を伴う
視程: 3000m
高度400ftの千切れ雲あり
高度1100ftの千切れ雲あり, 積乱雲.
弱いにわか雪, 靄

TAF: ULAA 161400Z 1615/1715 27003MPS 4000 -SN BR BKN007 TEMPO 1615/1710 24003MPS 0500 -SHSN FZFG BKN002 BKN010CB FM171000 27003MPS 6000 -SN BKN016 TEMPO 1710/1715 24003G08MPS 3000 -SHSN BR BKN004 BKN011CB

4,000以上の空港の気象観測と天気予報(METAR報とTAF報)

利用可能な観測所は地図上に黄色い丸と赤い丸で示す。

丸の上にカーソルを重ねると観測所名を参照できる。

次にクリックすると気象観測と天気予報を参照できる。

マップの切り替え:黒色「×」印の緑ボタンをクリックして拡大、「-」印の緑ボタンをクリックして縮小、緑色の三角印をクリックして隣りの地図に切り替え


METAR-TAF: